createdAt,value
2023-01-20T00:00:47.852Z,-0.20
2023-01-20T00:03:14.458Z,-0.10
2023-01-20T00:05:50.218Z,-0.10
2023-01-20T00:08:16.831Z,-0.10
2023-01-20T00:10:43.423Z,-0.10
2023-01-20T00:13:09.989Z,0.00
2023-01-20T00:15:36.594Z,0.00
2023-01-20T00:18:06.150Z,0.00
2023-01-20T00:20:32.713Z,0.00
2023-01-20T00:22:59.314Z,-0.10
2023-01-20T00:25:25.885Z,-0.10
2023-01-20T00:27:55.563Z,-0.10
2023-01-20T00:30:24.604Z,-0.10
2023-01-20T00:32:52.155Z,0.00
2023-01-20T00:35:18.903Z,0.00
2023-01-20T00:37:48.063Z,0.00
2023-01-20T00:40:14.708Z,0.10
2023-01-20T00:42:41.314Z,0.10
2023-01-20T00:45:13.130Z,0.10
2023-01-20T00:47:39.872Z,0.10
2023-01-20T00:50:06.669Z,0.10
2023-01-20T00:52:33.329Z,0.00
2023-01-20T00:54:59.911Z,0.00
2023-01-20T00:57:26.608Z,0.00
2023-01-20T00:59:53.210Z,0.00
2023-01-20T01:02:21.991Z,0.00
2023-01-20T01:04:54.231Z,0.00
2023-01-20T01:07:20.807Z,0.00
2023-01-20T01:09:47.466Z,0.00
2023-01-20T01:12:18.984Z,0.00
2023-01-20T01:14:45.593Z,0.00
2023-01-20T01:17:17.167Z,0.00
2023-01-20T01:19:43.761Z,0.00
2023-01-20T01:22:12.779Z,0.00
2023-01-20T01:24:39.398Z,0.10
2023-01-20T01:27:06.088Z,0.10
2023-01-20T01:29:35.090Z,0.20
2023-01-20T01:32:01.735Z,0.20
2023-01-20T01:34:28.363Z,0.20
2023-01-20T01:36:55.025Z,0.10
2023-01-20T01:39:22.204Z,0.10
2023-01-20T01:41:48.969Z,0.20
2023-01-20T01:44:18.259Z,0.20
2023-01-20T01:46:47.253Z,0.20
2023-01-20T01:49:19.319Z,0.30
2023-01-20T01:52:06.247Z,0.30
2023-01-20T01:54:34.721Z,0.30
2023-01-20T01:57:03.466Z,0.20
2023-01-20T01:59:30.224Z,0.20
2023-01-20T02:01:57.156Z,0.20
2023-01-20T02:04:27.230Z,0.20
2023-01-20T02:07:09.200Z,0.20
2023-01-20T02:09:35.994Z,0.30
2023-01-20T02:12:03.993Z,0.40
2023-01-20T02:14:34.701Z,0.50
2023-01-20T02:17:19.846Z,0.40
2023-01-20T02:19:58.683Z,0.40
2023-01-20T02:22:28.369Z,0.40
2023-01-20T02:25:03.595Z,0.50
2023-01-20T02:27:39.435Z,0.50
2023-01-20T02:30:18.312Z,0.60
2023-01-20T02:32:50.773Z,0.60
2023-01-20T02:35:29.554Z,0.60
2023-01-20T02:38:02.328Z,0.60
2023-01-20T02:40:42.123Z,0.60
2023-01-20T02:43:11.062Z,0.50
2023-01-20T02:45:40.809Z,0.50
2023-01-20T02:48:22.387Z,0.40
2023-01-20T02:50:55.008Z,0.50
2023-01-20T02:53:22.281Z,0.40
2023-01-20T02:55:49.798Z,0.40
2023-01-20T02:58:21.015Z,0.40
2023-01-20T03:00:50.514Z,0.40
2023-01-20T03:03:19.110Z,0.40
2023-01-20T03:05:49.160Z,0.40
2023-01-20T03:08:18.834Z,0.40
2023-01-20T03:10:48.937Z,0.40
2023-01-20T03:13:19.228Z,0.30
2023-01-20T03:16:02.455Z,0.30
2023-01-20T03:18:30.183Z,0.30
2023-01-20T03:20:57.666Z,0.40
2023-01-20T03:23:25.559Z,0.40
2023-01-20T03:25:52.262Z,0.50
2023-01-20T03:28:18.894Z,0.50
2023-01-20T03:30:45.522Z,0.50
2023-01-20T03:33:12.512Z,0.50
2023-01-20T03:35:43.813Z,0.50
2023-01-20T03:38:13.289Z,0.70
2023-01-20T03:40:48.353Z,0.70
2023-01-20T03:43:27.460Z,0.70
2023-01-20T03:45:57.718Z,0.70
2023-01-20T03:48:38.937Z,0.70
2023-01-20T03:51:13.120Z,0.60
2023-01-20T03:53:57.303Z,0.60
2023-01-20T03:56:30.612Z,0.50
2023-01-20T03:58:57.949Z,0.50
2023-01-20T04:01:28.993Z,0.40
2023-01-20T04:03:56.355Z,0.40
2023-01-20T04:06:26.203Z,0.40
2023-01-20T04:09:00.840Z,0.40
2023-01-20T04:11:27.883Z,0.40
2023-01-20T04:13:54.867Z,0.40
2023-01-20T04:16:22.141Z,0.40
2023-01-20T04:18:53.731Z,0.40
2023-01-20T04:21:23.643Z,0.40
2023-01-20T04:23:56.081Z,0.50
2023-01-20T04:26:22.667Z,0.60
2023-01-20T04:28:51.785Z,0.60
2023-01-20T04:31:30.010Z,0.60
2023-01-20T04:33:58.066Z,0.70
2023-01-20T04:36:24.633Z,0.70
2023-01-20T04:38:51.204Z,0.70
2023-01-20T04:41:20.330Z,0.60
2023-01-20T04:43:46.932Z,0.50
2023-01-20T04:46:18.509Z,0.50
2023-01-20T04:48:46.124Z,0.50
2023-01-20T04:51:12.975Z,0.50
2023-01-20T04:53:39.746Z,0.50
2023-01-20T04:56:15.942Z,0.50
2023-01-20T04:58:42.863Z,0.50
2023-01-20T05:01:11.657Z,0.40
2023-01-20T05:03:38.422Z,0.40
2023-01-20T05:06:06.436Z,0.40
2023-01-20T05:08:33.289Z,0.40
2023-01-20T05:10:59.932Z,0.50
2023-01-20T05:13:26.562Z,0.50
2023-01-20T05:15:53.206Z,0.50
2023-01-20T05:18:19.928Z,0.50
2023-01-20T05:20:47.381Z,0.50
2023-01-20T05:23:16.153Z,0.50
2023-01-20T05:25:43.054Z,0.50
2023-01-20T05:28:12.092Z,0.50
2023-01-20T05:30:41.280Z,0.50
2023-01-20T05:33:07.977Z,0.50
2023-01-20T05:35:36.839Z,0.50
2023-01-20T05:38:03.421Z,0.50
2023-01-20T05:40:30.456Z,0.60
2023-01-20T05:43:00.702Z,0.70
2023-01-20T05:45:27.467Z,0.70
2023-01-20T05:47:57.910Z,0.70
2023-01-20T05:50:25.423Z,0.60
2023-01-20T05:52:52.265Z,0.70
2023-01-20T05:55:18.895Z,0.80
2023-01-20T05:57:45.603Z,0.80
2023-01-20T06:00:14.046Z,0.80
2023-01-20T06:02:43.401Z,0.80
2023-01-20T06:05:10.137Z,0.80
2023-01-20T06:07:36.747Z,0.90
2023-01-20T06:10:03.615Z,0.80
2023-01-20T06:12:30.196Z,0.90
2023-01-20T06:14:57.284Z,0.90
2023-01-20T06:17:26.123Z,0.90
2023-01-20T06:19:52.706Z,0.90
2023-01-20T06:22:20.986Z,0.90
2023-01-20T06:24:47.735Z,0.90
2023-01-20T06:27:14.387Z,0.90
2023-01-20T06:29:41.105Z,0.90
2023-01-20T06:32:07.780Z,0.90
2023-01-20T06:34:34.451Z,0.90
2023-01-20T06:37:03.803Z,0.90
2023-01-20T06:39:32.579Z,0.90
2023-01-20T06:42:04.148Z,0.90
2023-01-20T06:44:30.896Z,1.00
2023-01-20T06:46:58.025Z,1.00
2023-01-20T06:49:27.060Z,0.90
2023-01-20T06:51:53.918Z,1.00
2023-01-20T06:54:20.561Z,1.00
2023-01-20T06:56:47.146Z,1.10
2023-01-20T06:59:13.766Z,1.00
2023-01-20T07:01:40.705Z,1.00
2023-01-20T07:04:08.215Z,1.00
2023-01-20T07:06:41.064Z,1.00
2023-01-20T07:09:11.433Z,1.00
2023-01-20T07:11:40.876Z,1.00
2023-01-20T07:14:10.212Z,1.00
2023-01-20T07:16:37.296Z,1.00
2023-01-20T07:19:03.972Z,0.90
2023-01-20T07:21:33.066Z,0.90
2023-01-20T07:24:03.623Z,0.90
2023-01-20T07:26:30.401Z,1.00
2023-01-20T07:28:59.903Z,1.00
2023-01-20T07:31:27.428Z,1.00
2023-01-20T07:33:57.030Z,1.00
2023-01-20T07:36:26.473Z,1.00
2023-01-20T07:38:55.584Z,1.10
2023-01-20T07:41:22.385Z,1.10
2023-01-20T07:43:50.535Z,1.10
2023-01-20T07:46:18.043Z,1.10
2023-01-20T07:48:47.092Z,1.10
2023-01-20T07:51:14.292Z,1.10
2023-01-20T07:53:46.527Z,1.10
2023-01-20T07:56:15.645Z,1.20
2023-01-20T07:58:50.351Z,1.20
2023-01-20T08:01:22.179Z,1.10
2023-01-20T08:03:49.398Z,1.10
2023-01-20T08:06:17.398Z,1.10
2023-01-20T08:08:44.071Z,1.20
2023-01-20T08:11:12.301Z,1.20
2023-01-20T08:13:39.602Z,1.20
2023-01-20T08:16:07.751Z,1.20
2023-01-20T08:18:35.399Z,1.20
2023-01-20T08:21:06.414Z,1.10
2023-01-20T08:23:33.407Z,1.10
2023-01-20T08:26:02.078Z,1.20
2023-01-20T08:28:29.581Z,1.30
2023-01-20T08:31:05.288Z,1.50
2023-01-20T08:33:34.155Z,1.80
2023-01-20T08:36:04.993Z,1.90
2023-01-20T08:38:31.705Z,1.90
2023-01-20T08:41:00.657Z,1.90
2023-01-20T08:43:27.498Z,1.90
2023-01-20T08:46:05.237Z,2.10
2023-01-20T08:48:35.479Z,2.10
2023-01-20T08:51:07.647Z,2.10
2023-01-20T08:53:36.660Z,2.10
2023-01-20T08:56:05.656Z,2.20
2023-01-20T08:58:37.576Z,2.20
2023-01-20T09:01:11.283Z,2.30
2023-01-20T09:03:49.415Z,2.50
2023-01-20T09:06:28.248Z,2.70
2023-01-20T09:08:55.190Z,2.80
2023-01-20T09:11:23.496Z,2.90
2023-01-20T09:13:52.971Z,3.10
2023-01-20T09:16:19.755Z,3.10
2023-01-20T09:18:46.817Z,3.10
2023-01-20T09:21:16.719Z,3.10
2023-01-20T09:23:48.324Z,3.10
2023-01-20T09:26:29.746Z,3.10
2023-01-20T09:29:09.950Z,3.00
2023-01-20T09:31:40.615Z,2.90
2023-01-20T09:34:08.115Z,2.90
2023-01-20T09:36:38.046Z,2.90
2023-01-20T09:39:23.572Z,2.90
2023-01-20T09:42:10.414Z,2.90
2023-01-20T09:44:59.523Z,2.90
2023-01-20T09:47:31.304Z,3.00
2023-01-20T09:50:17.205Z,2.90
2023-01-20T09:53:02.908Z,3.00
2023-01-20T09:55:32.429Z,3.10
2023-01-20T09:58:08.770Z,3.10
2023-01-20T10:00:36.730Z,3.10
2023-01-20T10:03:23.824Z,3.10
2023-01-20T10:05:53.043Z,3.10
2023-01-20T10:08:32.953Z,3.20
2023-01-20T10:11:11.255Z,3.30
2023-01-20T10:13:47.467Z,3.40
2023-01-20T10:16:20.598Z,3.50
2023-01-20T10:18:54.370Z,3.50
2023-01-20T10:21:34.164Z,3.60
2023-01-20T10:24:05.029Z,3.60
2023-01-20T10:26:34.411Z,3.60
2023-01-20T10:29:04.491Z,3.70
2023-01-20T10:31:35.424Z,3.70
2023-01-20T10:34:12.946Z,3.60
2023-01-20T10:36:43.283Z,3.60
2023-01-20T10:39:28.568Z,3.60
2023-01-20T10:42:03.361Z,3.60
2023-01-20T10:44:35.124Z,3.80
2023-01-20T10:47:14.237Z,3.90
2023-01-20T10:49:52.812Z,3.90
2023-01-20T10:52:43.253Z,3.90
2023-01-20T10:55:29.785Z,3.80
2023-01-20T10:58:01.903Z,3.80
2023-01-20T11:00:31.862Z,4.00
2023-01-20T11:02:59.905Z,4.00
2023-01-20T11:05:29.921Z,4.00
2023-01-20T11:07:59.953Z,4.00
2023-01-20T11:10:32.132Z,4.10
2023-01-20T11:13:00.021Z,4.20
2023-01-20T11:15:26.645Z,4.30
2023-01-20T11:18:12.149Z,4.40
2023-01-20T11:20:38.817Z,4.50
2023-01-20T11:23:05.528Z,4.60
2023-01-20T11:25:32.744Z,4.80
2023-01-20T11:28:02.782Z,4.80
2023-01-20T11:30:31.190Z,5.00
2023-01-20T11:33:16.863Z,5.00
2023-01-20T11:36:02.351Z,5.00
2023-01-20T11:38:32.711Z,5.00
2023-01-20T11:40:59.386Z,4.90
2023-01-20T11:43:30.165Z,4.80
2023-01-20T11:46:32.593Z,4.80
2023-01-20T11:49:12.235Z,4.80
2023-01-20T11:51:46.570Z,4.90
2023-01-20T11:54:20.286Z,5.00
2023-01-20T11:56:49.272Z,5.00
2023-01-20T11:59:27.229Z,5.00
2023-01-20T12:02:00.360Z,4.90
2023-01-20T12:04:27.107Z,5.00
2023-01-20T12:06:58.162Z,5.20
2023-01-20T12:09:28.121Z,5.10
2023-01-20T12:11:54.711Z,5.10
2023-01-20T12:14:33.408Z,5.30
2023-01-20T12:17:00.061Z,5.40
2023-01-20T12:19:34.500Z,5.40
2023-01-20T12:22:09.420Z,5.30
2023-01-20T12:25:04.164Z,5.30
2023-01-20T12:27:30.855Z,5.40
2023-01-20T12:30:00.217Z,5.50
2023-01-20T12:32:29.928Z,5.50
2023-01-20T12:34:58.912Z,5.30
2023-01-20T12:37:40.598Z,5.20
2023-01-20T12:40:22.329Z,5.30
2023-01-20T12:43:01.169Z,5.10
2023-01-20T12:45:30.922Z,5.00
2023-01-20T12:48:00.358Z,5.00
2023-01-20T12:50:39.267Z,4.90
2023-01-20T12:53:16.891Z,5.00
2023-01-20T12:55:56.935Z,5.10
2023-01-20T12:58:31.529Z,5.20
2023-01-20T13:01:03.370Z,5.10
2023-01-20T13:03:42.093Z,5.00
2023-01-20T13:06:14.903Z,4.90
2023-01-20T13:08:47.729Z,4.90
2023-01-20T13:11:16.757Z,4.80
2023-01-20T13:13:56.952Z,4.90
2023-01-20T13:16:30.252Z,4.90
2023-01-20T13:19:03.969Z,4.80
2023-01-20T13:21:34.247Z,4.90
2023-01-20T13:24:04.297Z,5.00
2023-01-20T13:26:31.203Z,5.00
2023-01-20T13:29:02.498Z,4.90
2023-01-20T13:31:31.417Z,4.80
2023-01-20T13:34:16.663Z,4.90
2023-01-20T13:37:03.466Z,5.00
2023-01-20T13:39:33.214Z,5.00
2023-01-20T13:41:59.833Z,4.90
2023-01-20T13:44:35.622Z,5.00
2023-01-20T13:47:02.879Z,5.00
2023-01-20T13:49:46.151Z,4.80
2023-01-20T13:52:12.899Z,4.80
2023-01-20T13:54:48.779Z,4.80
2023-01-20T13:57:28.261Z,4.70
2023-01-20T13:59:59.902Z,4.60
2023-01-20T14:02:29.463Z,4.60
2023-01-20T14:05:00.875Z,4.50
2023-01-20T14:07:29.589Z,4.40
2023-01-20T14:10:01.649Z,4.30
2023-01-20T14:12:30.744Z,4.20
2023-01-20T14:14:57.445Z,4.10
2023-01-20T14:17:29.126Z,4.00
2023-01-20T14:19:58.230Z,3.90
2023-01-20T14:22:32.490Z,3.80
2023-01-20T14:25:00.656Z,3.90
2023-01-20T14:27:28.194Z,3.80
2023-01-20T14:30:00.446Z,3.70
2023-01-20T14:32:28.518Z,3.70
2023-01-20T14:34:57.604Z,3.70
2023-01-20T14:37:30.123Z,3.60
2023-01-20T14:39:58.800Z,3.60
2023-01-20T14:42:29.644Z,3.50
2023-01-20T14:44:59.630Z,3.50
2023-01-20T14:47:30.148Z,3.50
2023-01-20T14:49:59.185Z,3.50
2023-01-20T14:52:32.361Z,3.40
2023-01-20T14:54:59.079Z,3.40
2023-01-20T14:57:37.304Z,3.20
2023-01-20T15:00:16.236Z,3.20
2023-01-20T15:02:47.952Z,3.10
2023-01-20T15:05:31.527Z,3.10
2023-01-20T15:08:16.632Z,3.00
2023-01-20T15:10:43.377Z,2.80
2023-01-20T15:13:24.163Z,2.70
2023-01-20T15:15:53.205Z,2.80
2023-01-20T15:18:21.457Z,2.70
2023-01-20T15:20:51.580Z,2.60
2023-01-20T15:23:41.194Z,2.50
2023-01-20T15:26:24.845Z,2.30
2023-01-20T15:28:53.692Z,2.20
2023-01-20T15:31:20.440Z,2.00
2023-01-20T15:33:49.301Z,2.00
2023-01-20T15:36:18.922Z,1.90
2023-01-20T15:38:47.967Z,2.00
2023-01-20T15:41:14.732Z,2.00
2023-01-20T15:43:42.509Z,1.90
2023-01-20T15:46:15.584Z,1.80
2023-01-20T15:48:42.926Z,1.60
2023-01-20T15:51:16.491Z,1.50
2023-01-20T15:53:45.996Z,1.40
2023-01-20T15:56:33.425Z,1.40
2023-01-20T15:59:00.138Z,1.30
2023-01-20T16:01:28.653Z,1.20
2023-01-20T16:03:57.720Z,1.10
2023-01-20T16:06:29.720Z,1.00
2023-01-20T16:08:56.694Z,1.00
2023-01-20T16:11:25.463Z,0.90
2023-01-20T16:13:54.457Z,0.80
2023-01-20T16:16:22.290Z,0.70
2023-01-20T16:18:49.229Z,0.70
2023-01-20T16:21:17.051Z,0.60
2023-01-20T16:23:47.212Z,0.60
2023-01-20T16:26:16.808Z,0.60
2023-01-20T16:28:43.472Z,0.50
2023-01-20T16:31:13.368Z,0.50
2023-01-20T16:33:42.445Z,0.40
2023-01-20T16:36:11.887Z,0.30
2023-01-20T16:38:38.799Z,0.30
2023-01-20T16:41:06.640Z,0.20
2023-01-20T16:43:41.454Z,0.20
2023-01-20T16:46:21.814Z,0.20
2023-01-20T16:48:51.558Z,0.10
2023-01-20T16:51:20.175Z,0.00
2023-01-20T16:53:47.137Z,0.10
2023-01-20T16:56:17.984Z,0.10
2023-01-20T16:58:46.551Z,0.00
2023-01-20T17:01:13.613Z,0.00
2023-01-20T17:03:41.203Z,-0.10
2023-01-20T17:06:10.792Z,-0.10
2023-01-20T17:08:37.434Z,-0.10
2023-01-20T17:11:04.321Z,-0.10
2023-01-20T17:13:33.046Z,-0.10
2023-01-20T17:15:59.616Z,-0.20
2023-01-20T17:18:26.234Z,-0.20
2023-01-20T17:20:52.898Z,-0.20
2023-01-20T17:23:19.517Z,-0.20
2023-01-20T17:25:46.128Z,-0.30
2023-01-20T17:28:12.794Z,-0.30
2023-01-20T17:30:39.438Z,-0.40
2023-01-20T17:33:06.095Z,-0.40
2023-01-20T17:35:35.077Z,-0.50
2023-01-20T17:38:01.829Z,-0.60
2023-01-20T17:40:28.491Z,-0.60
2023-01-20T17:42:55.052Z,-0.60
2023-01-20T17:45:21.711Z,-0.70
2023-01-20T17:47:52.241Z,-0.70
2023-01-20T17:50:19.046Z,-0.70
2023-01-20T17:52:45.718Z,-0.70
2023-01-20T17:55:12.308Z,-0.80
2023-01-20T17:57:41.344Z,-0.80
2023-01-20T18:00:09.641Z,-0.70
2023-01-20T18:02:36.359Z,-0.70
2023-01-20T18:05:03.371Z,-0.80
2023-01-20T18:07:31.838Z,-0.80
2023-01-20T18:09:58.632Z,-0.90
2023-01-20T18:12:27.508Z,-0.90
2023-01-20T18:14:58.650Z,-0.90
2023-01-20T18:17:25.372Z,-1.00
2023-01-20T18:19:51.991Z,-0.90
2023-01-20T18:22:19.070Z,-1.00
2023-01-20T18:24:45.778Z,-1.10
2023-01-20T18:27:12.486Z,-1.10
2023-01-20T18:29:41.672Z,-1.10
2023-01-20T18:32:08.334Z,-1.10
2023-01-20T18:34:35.111Z,-1.10
2023-01-20T18:37:01.829Z,-1.10
2023-01-20T18:39:29.575Z,-1.10
2023-01-20T18:41:56.276Z,-1.10
2023-01-20T18:44:28.493Z,-1.10
2023-01-20T18:46:57.732Z,-1.10
2023-01-20T18:49:24.383Z,-1.10
2023-01-20T18:51:51.140Z,-1.20
2023-01-20T18:54:18.617Z,-1.30
2023-01-20T18:56:45.397Z,-1.30
2023-01-20T18:59:12.258Z,-1.30
2023-01-20T19:01:40.089Z,-1.30
2023-01-20T19:04:07.825Z,-1.30
2023-01-20T19:06:36.801Z,-1.30
2023-01-20T19:09:03.947Z,-1.30
2023-01-20T19:11:32.069Z,-1.20
2023-01-20T19:14:02.138Z,-1.30
2023-01-20T19:16:32.683Z,-1.30
2023-01-20T19:19:01.688Z,-1.40
2023-01-20T19:21:31.108Z,-1.40
2023-01-20T19:24:01.034Z,-1.50
2023-01-20T19:26:31.269Z,-1.60
2023-01-20T19:29:00.677Z,-1.50
2023-01-20T19:31:31.120Z,-1.50
2023-01-20T19:34:00.851Z,-1.50
2023-01-20T19:36:27.686Z,-1.50
2023-01-20T19:38:56.723Z,-1.60
2023-01-20T19:41:27.054Z,-1.60
2023-01-20T19:43:57.374Z,-1.60
2023-01-20T19:46:28.609Z,-1.70
2023-01-20T19:48:56.021Z,-1.70
2023-01-20T19:51:25.406Z,-1.70
2023-01-20T19:53:58.073Z,-1.70
2023-01-20T19:56:28.299Z,-1.70
2023-01-20T19:58:55.565Z,-1.70
2023-01-20T20:01:24.097Z,-1.70
2023-01-20T20:03:54.345Z,-1.80
2023-01-20T20:06:25.799Z,-1.80
2023-01-20T20:08:56.575Z,-1.70
2023-01-20T20:11:23.364Z,-1.70
2023-01-20T20:13:52.729Z,-1.70
2023-01-20T20:16:19.453Z,-1.70
2023-01-20T20:18:48.682Z,-1.70
2023-01-20T20:21:15.408Z,-1.70
2023-01-20T20:23:43.224Z,-1.70
2023-01-20T20:26:15.217Z,-1.70
2023-01-20T20:28:41.881Z,-1.80
2023-01-20T20:31:08.961Z,-1.80
2023-01-20T20:33:35.706Z,-1.80
2023-01-20T20:36:07.065Z,-1.90
2023-01-20T20:38:36.740Z,-1.90
2023-01-20T20:41:04.358Z,-2.00
2023-01-20T20:43:31.024Z,-2.10
2023-01-20T20:46:04.245Z,-2.00
2023-01-20T20:48:31.201Z,-2.00
2023-01-20T20:51:03.932Z,-2.00
2023-01-20T20:53:33.137Z,-2.10
2023-01-20T20:56:04.143Z,-2.10
2023-01-20T20:58:31.769Z,-2.10
2023-01-20T21:01:01.045Z,-2.10
2023-01-20T21:03:30.495Z,-2.20
2023-01-20T21:05:57.936Z,-2.10
2023-01-20T21:08:25.474Z,-2.10
2023-01-20T21:10:52.464Z,-2.10
2023-01-20T21:13:24.906Z,-2.10
2023-01-20T21:15:55.956Z,-2.10
2023-01-20T21:18:22.694Z,-2.00
2023-01-20T21:20:56.425Z,-2.10
2023-01-20T21:23:23.410Z,-2.10
2023-01-20T21:25:50.138Z,-2.10
2023-01-20T21:28:19.467Z,-2.10
2023-01-20T21:30:46.657Z,-2.20
2023-01-20T21:33:17.440Z,-2.20
2023-01-20T21:35:47.334Z,-2.20
2023-01-20T21:38:14.079Z,-2.20
2023-01-20T21:40:41.266Z,-2.20
2023-01-20T21:43:26.518Z,-2.20
2023-01-20T21:45:56.131Z,-2.20
2023-01-20T21:48:41.252Z,-2.20
2023-01-20T21:51:29.793Z,-2.20
2023-01-20T21:53:56.466Z,-2.30
2023-01-20T21:56:25.190Z,-2.30
2023-01-20T21:58:51.951Z,-2.30
2023-01-20T22:01:18.641Z,-2.30
2023-01-20T22:03:47.635Z,-2.30
2023-01-20T22:06:14.291Z,-2.30
2023-01-20T22:08:40.881Z,-2.30
2023-01-20T22:11:07.601Z,-2.20
2023-01-20T22:13:34.312Z,-2.10
2023-01-20T22:16:04.155Z,-2.10
2023-01-20T22:18:33.208Z,-2.10
2023-01-20T22:21:06.848Z,-2.10
2023-01-20T22:23:34.192Z,-2.10
2023-01-20T22:26:00.907Z,-2.00
2023-01-20T22:28:29.413Z,-2.10
2023-01-20T22:30:56.553Z,-2.00
2023-01-20T22:33:30.416Z,-2.00
2023-01-20T22:35:59.523Z,-2.00
2023-01-20T22:38:26.255Z,-2.00
2023-01-20T22:40:52.922Z,-2.00
2023-01-20T22:43:20.089Z,-2.00
2023-01-20T22:45:48.963Z,-2.00
2023-01-20T22:48:15.606Z,-2.00
2023-01-20T22:50:42.251Z,-2.00
2023-01-20T22:53:08.842Z,-2.00
2023-01-20T22:55:43.730Z,-2.00
2023-01-20T22:58:16.766Z,-2.00
2023-01-20T23:00:43.790Z,-2.00
2023-01-20T23:03:10.616Z,-2.10
2023-01-20T23:05:40.980Z,-2.20
2023-01-20T23:08:10.242Z,-2.20
2023-01-20T23:10:46.087Z,-2.20
2023-01-20T23:13:13.340Z,-2.30
2023-01-20T23:15:39.942Z,-2.30
2023-01-20T23:18:07.387Z,-2.30
2023-01-20T23:20:34.078Z,-2.40
2023-01-20T23:23:00.733Z,-2.40
2023-01-20T23:25:27.643Z,-2.30
2023-01-20T23:27:56.566Z,-2.40
2023-01-20T23:30:23.410Z,-2.50
2023-01-20T23:32:52.782Z,-2.50
2023-01-20T23:35:19.469Z,-2.60
2023-01-20T23:37:49.590Z,-2.60
2023-01-20T23:40:16.716Z,-2.70
2023-01-20T23:42:46.149Z,-2.70
2023-01-20T23:45:15.209Z,-2.70
2023-01-20T23:47:41.866Z,-2.70
2023-01-20T23:50:11.494Z,-2.80
2023-01-20T23:52:38.116Z,-2.80
2023-01-20T23:55:07.344Z,-2.80
2023-01-20T23:57:34.037Z,-2.80
